Time;durP1;ratioP1;P1;durP2;ratioP2;P2;SDS_P1;SDS_P2;PMS_P1;PMS_P2;Temp;Humidity;BMP_temperature;BMP_pressure;BME280_temperature;BME280_humidity;BME280_pressure;Samples;Min_cycle;Max_cycle;Signal;HPM_P1;HPM_P2
2022/01/08 00:02:09;;;;;;;1.50;0.70;;;0.20;99.90;;;;;;4988356;28;20211;-68
2022/01/08 00:04:35;;;;;;;1.40;0.97;;;0.30;99.90;;;;;;4987308;28;20275;-68
2022/01/08 00:07:01;;;;;;;2.53;1.20;;;0.40;99.90;;;;;;4992153;28;20507;-68
2022/01/08 00:09:26;;;;;;;1.30;0.57;;;0.40;99.90;;;;;;4987271;28;20188;-68
2022/01/08 00:11:52;;;;;;;1.40;0.50;;;0.50;99.90;;;;;;4988872;28;20247;-68
2022/01/08 00:14:21;;;;;;;1.60;0.80;;;0.50;99.90;;;;;;4992522;28;20194;-68
2022/01/08 00:16:46;;;;;;;2.97;0.90;;;0.60;99.90;;;;;;4997470;28;20244;-68
2022/01/08 00:19:12;;;;;;;2.33;1.00;;;0.60;99.90;;;;;;4999389;28;21167;-68
2022/01/08 00:21:38;;;;;;;1.67;0.70;;;0.70;99.90;;;;;;4991937;28;20211;-68
2022/01/08 00:24:04;;;;;;;1.50;0.70;;;0.70;99.90;;;;;;4991744;28;20226;-68
2022/01/08 00:26:29;;;;;;;1.93;0.83;;;0.80;99.90;;;;;;4984693;28;20193;-68
2022/01/08 00:28:55;;;;;;;4.27;1.60;;;0.90;99.90;;;;;;4994378;28;20437;-68
2022/01/08 00:31:21;;;;;;;2.30;0.80;;;0.90;99.90;;;;;;4992627;28;20226;-68
2022/01/08 00:33:47;;;;;;;1.60;0.90;;;1.00;99.90;;;;;;4995879;28;20195;-68
2022/01/08 00:36:13;;;;;;;8.10;1.17;;;1.00;99.90;;;;;;4993335;28;20211;-68
2022/01/08 00:38:38;;;;;;;3.40;1.10;;;1.00;99.90;;;;;;4996846;28;20429;-68
2022/01/08 00:41:04;;;;;;;2.53;0.90;;;1.00;99.90;;;;;;4989296;28;20191;-68
2022/01/08 00:43:30;;;;;;;1.90;0.80;;;0.90;99.90;;;;;;4995961;28;20192;-68
2022/01/08 00:45:55;;;;;;;5.43;1.00;;;0.90;99.90;;;;;;4995748;28;20195;-68
2022/01/08 00:48:21;;;;;;;4.47;1.33;;;1.00;99.90;;;;;;4989677;28;20282;-68
2022/01/08 00:50:46;;;;;;;1.40;0.60;;;1.00;99.90;;;;;;5007130;28;20183;-68
2022/01/08 00:53:12;;;;;;;3.20;0.60;;;0.90;99.90;;;;;;5000186;28;20218;-68
2022/01/08 00:55:38;;;;;;;1.30;0.63;;;0.90;99.90;;;;;;5000341;28;20670;-68
2022/01/08 00:58:03;;;;;;;2.07;0.70;;;1.00;99.90;;;;;;4998516;28;20267;-68
2022/01/08 01:00:29;;;;;;;2.40;0.73;;;1.00;99.90;;;;;;4996998;28;20267;-68
2022/01/08 01:02:55;;;;;;;2.23;1.13;;;1.00;99.90;;;;;;4990166;28;20191;-68
2022/01/08 01:05:21;;;;;;;2.87;1.20;;;1.00;99.90;;;;;;4990426;28;20292;-68
2022/01/08 01:07:47;;;;;;;2.77;0.80;;;1.00;99.90;;;;;;4983320;28;20188;-68
2022/01/08 01:10:13;;;;;;;2.23;0.70;;;1.00;99.90;;;;;;4985491;28;20960;-68
2022/01/08 01:12:39;;;;;;;1.60;0.70;;;1.10;99.90;;;;;;4993585;28;20183;-68
2022/01/08 01:15:07;;;;;;;1.30;0.60;;;1.10;99.90;;;;;;4994266;28;20872;-68
2022/01/08 01:17:32;;;;;;;1.80;0.80;;;1.10;99.90;;;;;;4989445;28;20512;-68
2022/01/08 01:19:58;;;;;;;2.27;0.87;;;1.10;99.90;;;;;;4990338;28;20431;-68
2022/01/08 01:22:28;;;;;;;3.73;0.80;;;1.10;99.90;;;;;;4990792;28;20195;-68
2022/01/08 01:25:01;;;;;;;3.40;0.77;;;1.20;99.90;;;;;;4987508;28;20508;-68
2022/01/08 01:30:03;;;;;;;1.50;0.60;;;1.20;99.90;;;;;;4994037;28;20441;-68
2022/01/08 01:48:53;;;;;;;1.97;1.07;;;1.30;99.90;;;;;;4991344;28;20454;-68
2022/01/08 01:51:20;;;;;;;1.33;0.80;;;1.40;99.90;;;;;;4994007;28;20442;-68
2022/01/08 01:53:46;;;;;;;2.50;1.30;;;1.30;99.90;;;;;;4988641;28;20451;-68
2022/01/08 01:56:15;;;;;;;1.90;1.00;;;1.30;99.90;;;;;;4991214;28;20470;-68
2022/01/08 01:58:40;;;;;;;3.73;0.60;;;1.20;99.90;;;;;;4995446;28;20517;-68
2022/01/08 02:01:06;;;;;;;10.00;1.10;;;1.20;99.90;;;;;;4992443;28;20585;-68
2022/01/08 02:03:32;;;;;;;2.20;1.00;;;1.20;99.90;;;;;;4994111;28;20539;-68
2022/01/08 02:05:57;;;;;;;4.40;1.27;;;1.20;99.90;;;;;;4992203;28;20246;-68
2022/01/08 02:08:23;;;;;;;3.80;1.27;;;1.20;99.90;;;;;;4997395;28;20202;-68
2022/01/08 02:10:49;;;;;;;2.37;1.30;;;1.20;99.90;;;;;;4990706;28;20199;-67
2022/01/08 02:13:26;;;;;;;2.23;1.10;;;1.20;99.90;;;;;;4998679;28;20229;-68
2022/01/08 02:15:53;;;;;;;2.80;0.90;;;1.30;99.90;;;;;;4987844;28;20212;-67
2022/01/08 02:18:20;;;;;;;3.10;1.10;;;1.30;99.90;;;;;;4989494;28;20422;-68
2022/01/08 02:20:46;;;;;;;2.57;0.83;;;1.40;99.90;;;;;;4989462;28;20493;-68
2022/01/08 02:23:11;;;;;;;1.33;0.80;;;1.40;99.90;;;;;;4990121;28;20430;-68
2022/01/08 02:25:37;;;;;;;1.80;0.90;;;1.50;99.90;;;;;;4988732;28;20901;-68
2022/01/08 02:28:06;;;;;;;1.90;1.07;;;1.50;99.90;;;;;;4991262;28;20295;-68
2022/01/08 02:30:32;;;;;;;1.40;0.70;;;1.50;99.90;;;;;;4994572;28;20635;-67
2022/01/08 02:32:59;;;;;;;5.33;1.10;;;1.50;99.90;;;;;;4992101;28;20463;-68
2022/01/08 02:35:25;;;;;;;2.43;0.90;;;1.60;99.90;;;;;;4991635;28;20426;-68
2022/01/08 02:37:52;;;;;;;3.23;1.30;;;1.60;99.90;;;;;;4992172;28;20427;-68
2022/01/08 02:40:19;;;;;;;1.77;0.97;;;1.60;99.90;;;;;;4995440;28;20513;-68
2022/01/08 02:42:59;;;;;;;6.67;1.03;;;1.50;99.90;;;;;;4992260;28;20514;-68
2022/01/08 02:45:25;;;;;;;7.97;1.40;;;1.40;99.90;;;;;;4993971;28;20418;-68
2022/01/08 02:47:53;;;;;;;2.57;1.50;;;1.40;99.90;;;;;;4992402;28;20759;-68
2022/01/08 02:50:19;;;;;;;3.30;1.80;;;1.40;99.90;;;;;;4995117;28;20545;-68
2022/01/08 02:52:45;;;;;;;4.70;1.40;;;1.30;99.90;;;;;;4993739;28;20434;-68
2022/01/08 02:55:15;;;;;;;2.23;1.30;;;1.30;99.90;;;;;;4997556;28;20958;-68
2022/01/08 02:57:41;;;;;;;1.90;1.07;;;1.20;99.90;;;;;;4992219;28;20470;-68
2022/01/08 03:00:08;;;;;;;4.10;1.80;;;1.20;99.90;;;;;;4997597;28;20496;-68
2022/01/08 03:02:34;;;;;;;2.83;1.23;;;1.20;99.90;;;;;;4985729;28;20433;-68
2022/01/08 03:05:00;;;;;;;7.53;2.03;;;1.20;99.90;;;;;;4985499;28;20787;-68
2022/01/08 03:07:25;;;;;;;2.93;1.50;;;1.20;99.90;;;;;;4988087;28;20199;-68
2022/01/08 03:09:57;;;;;;;4.47;2.00;;;1.10;99.90;;;;;;4988095;28;20195;-68
2022/01/08 03:12:27;;;;;;;4.20;2.00;;;1.10;99.90;;;;;;4991561;28;20652;-68
2022/01/08 03:14:54;;;;;;;12.27;2.03;;;1.10;99.90;;;;;;4994792;28;20425;-68
2022/01/08 03:17:20;;;;;;;6.13;1.77;;;1.00;99.90;;;;;;4992394;28;20469;-68
2022/01/08 03:19:46;;;;;;;2.70;1.60;;;1.00;99.90;;;;;;4996143;28;20573;-69
2022/01/08 03:22:12;;;;;;;2.13;1.50;;;1.00;99.90;;;;;;4997451;28;20196;-68
2022/01/08 03:24:39;;;;;;;6.73;2.50;;;1.00;99.90;;;;;;4991831;28;20933;-69
2022/01/08 03:27:05;;;;;;;2.60;1.70;;;1.00;99.90;;;;;;4985946;28;20450;-68
2022/01/08 03:29:31;;;;;;;3.67;1.77;;;0.90;99.90;;;;;;4990896;28;20438;-68
2022/01/08 03:31:57;;;;;;;5.50;2.53;;;0.90;99.90;;;;;;4990435;28;20457;-68
2022/01/08 03:34:23;;;;;;;5.73;1.63;;;0.90;99.90;;;;;;4987570;28;20267;-68
2022/01/08 03:36:49;;;;;;;6.63;2.53;;;0.90;99.90;;;;;;4987231;28;20303;-69
2022/01/08 03:39:15;;;;;;;6.70;2.60;;;0.80;99.90;;;;;;4994808;28;20441;-69
2022/01/08 03:41:42;;;;;;;5.30;2.60;;;0.80;99.90;;;;;;4991739;28;20188;-68
2022/01/08 03:44:08;;;;;;;2.80;1.67;;;0.90;99.90;;;;;;4996505;28;20221;-69
2022/01/08 03:46:36;;;;;;;3.40;1.73;;;0.90;99.90;;;;;;4992217;28;20510;-69
2022/01/08 03:51:29;;;;;;;4.10;2.30;;;0.90;99.90;;;;;;4992693;28;20427;-70
2022/01/08 03:53:54;;;;;;;5.67;2.47;;;0.90;99.90;;;;;;4994034;28;20445;-69
2022/01/08 03:56:20;;;;;;;5.30;2.53;;;0.90;99.90;;;;;;4991113;28;20458;-69
2022/01/08 03:58:46;;;;;;;6.33;2.30;;;0.90;99.90;;;;;;4991228;28;20211;-69
2022/01/08 04:01:11;;;;;;;4.53;2.30;;;0.90;99.90;;;;;;4993282;28;20183;-69
2022/01/08 04:03:37;;;;;;;5.47;2.50;;;0.90;99.90;;;;;;4991353;28;20625;-69
2022/01/08 04:06:02;;;;;;;5.13;2.30;;;1.00;99.90;;;;;;4993584;28;20196;-69
2022/01/08 04:08:28;;;;;;;3.10;2.07;;;1.00;99.90;;;;;;4995581;28;20187;-69
2022/01/08 04:10:54;;;;;;;3.57;2.13;;;1.00;99.90;;;;;;4991243;28;20215;-69
2022/01/08 04:13:27;;;;;;;7.00;2.50;;;1.00;99.90;;;;;;4991073;28;20655;-69
2022/01/08 04:15:57;;;;;;;4.00;2.17;;;1.10;99.90;;;;;;4991145;28;20238;-70
2022/01/08 04:18:23;;;;;;;4.40;1.87;;;1.00;99.90;;;;;;4991554;28;20422;-69
2022/01/08 04:23:40;;;;;;;4.37;2.13;;;1.10;99.90;;;;;;4979836;28;20837;-69
2022/01/08 04:26:06;;;;;;;2.60;1.60;;;1.10;99.90;;;;;;4990892;28;20428;-70
2022/01/08 04:28:32;;;;;;;2.87;1.60;;;1.00;99.90;;;;;;4993481;28;20226;-69
2022/01/08 04:30:57;;;;;;;4.10;2.03;;;1.00;99.90;;;;;;4996633;28;20193;-69
2022/01/08 04:33:23;;;;;;;4.10;2.00;;;1.00;99.90;;;;;;4993932;28;20889;-69
2022/01/08 04:35:49;;;;;;;2.80;1.40;;;1.00;99.90;;;;;;4994722;28;20214;-69
2022/01/08 04:38:14;;;;;;;4.87;2.30;;;0.90;99.90;;;;;;4994566;28;20207;-70
2022/01/08 04:40:40;;;;;;;4.10;1.60;;;0.90;99.90;;;;;;4997591;28;20188;-70
2022/01/08 04:43:06;;;;;;;3.60;1.87;;;0.90;99.90;;;;;;4977596;28;20929;-70
2022/01/08 04:45:32;;;;;;;3.10;1.47;;;0.90;99.90;;;;;;4998059;28;20414;-70
2022/01/08 04:47:59;;;;;;;5.53;1.73;;;0.90;99.90;;;;;;4989893;28;20566;-70
2022/01/08 04:50:27;;;;;;;3.17;1.30;;;0.80;99.90;;;;;;4994308;28;20640;-70
2022/01/08 04:52:53;;;;;;;2.43;1.20;;;0.80;99.90;;;;;;4990382;28;20434;-70
2022/01/08 04:55:19;;;;;;;2.07;1.10;;;0.80;99.90;;;;;;4999680;28;20421;-70
2022/01/08 04:57:45;;;;;;;2.90;1.10;;;0.80;99.90;;;;;;4997753;28;20472;-70
2022/01/08 05:00:13;;;;;;;4.80;1.70;;;0.70;99.90;;;;;;4990517;28;20427;-70
2022/01/08 05:02:39;;;;;;;1.50;0.73;;;0.80;99.90;;;;;;4987642;28;20196;-70
2022/01/08 05:05:05;;;;;;;2.83;1.17;;;0.80;99.90;;;;;;4980821;28;20439;-70
2022/01/08 05:07:31;;;;;;;2.90;1.20;;;0.70;99.90;;;;;;4994076;28;20588;-71
2022/01/08 05:09:57;;;;;;;2.10;1.10;;;0.70;99.90;;;;;;4995809;28;20517;-70
2022/01/08 05:12:23;;;;;;;2.40;1.13;;;0.70;99.90;;;;;;4990355;28;20188;-70
2022/01/08 05:14:49;;;;;;;1.40;0.93;;;0.70;99.90;;;;;;4996983;28;20210;-70
2022/01/08 05:17:14;;;;;;;1.60;0.63;;;0.70;99.90;;;;;;4984034;28;20978;-70
2022/01/08 05:19:48;;;;;;;1.93;1.23;;;0.80;99.90;;;;;;4991230;28;20442;-70
2022/01/08 05:22:26;;;;;;;1.67;0.73;;;0.80;99.90;;;;;;4990320;28;20421;-69
2022/01/08 05:24:52;;;;;;;1.80;1.00;;;0.80;99.90;;;;;;4979599;28;20448;-70
2022/01/08 05:27:18;;;;;;;1.27;0.60;;;0.80;99.90;;;;;;4980077;28;20502;-70
2022/01/08 05:29:46;;;;;;;1.83;0.97;;;0.80;99.90;;;;;;4989373;28;20919;-70
2022/01/08 05:32:16;;;;;;;1.30;0.57;;;0.80;99.90;;;;;;4989977;28;20192;-70
2022/01/08 05:34:48;;;;;;;1.70;0.87;;;0.80;99.90;;;;;;4992865;28;20431;-71
2022/01/08 05:37:15;;;;;;;1.67;0.80;;;0.80;99.90;;;;;;4992954;28;20474;-70
2022/01/08 05:39:41;;;;;;;2.60;1.27;;;0.90;99.90;;;;;;4990786;28;20460;-71
2022/01/08 05:42:07;;;;;;;1.27;0.63;;;0.90;99.90;;;;;;4990152;28;20883;-71
2022/01/08 05:44:33;;;;;;;1.30;0.73;;;0.90;99.90;;;;;;4984712;28;20219;-71
2022/01/08 05:46:59;;;;;;;1.10;0.40;;;0.90;99.90;;;;;;4986483;28;20222;-71
2022/01/08 05:49:25;;;;;;;1.23;0.60;;;1.00;99.90;;;;;;4998230;28;20422;-71
2022/01/08 05:51:50;;;;;;;1.67;0.70;;;1.00;99.90;;;;;;4999801;28;20529;-71
2022/01/08 05:54:16;;;;;;;1.83;0.70;;;1.00;99.90;;;;;;4992335;28;20727;-71
2022/01/08 05:56:42;;;;;;;3.70;0.77;;;1.00;99.90;;;;;;5001514;28;20743;-71
2022/01/08 05:59:07;;;;;;;1.40;0.50;;;1.00;99.90;;;;;;5001801;28;20180;-71
2022/01/08 06:01:34;;;;;;;1.10;0.47;;;1.10;99.90;;;;;;4989330;28;20696;-70
2022/01/08 06:04:01;;;;;;;1.73;0.50;;;1.10;99.90;;;;;;4984752;28;20666;-70
2022/01/08 06:06:27;;;;;;;1.97;0.60;;;1.00;99.90;;;;;;4992238;28;20464;-70
2022/01/08 06:08:52;;;;;;;1.97;0.70;;;1.00;99.90;;;;;;4990770;28;20907;-70
2022/01/08 06:11:18;;;;;;;1.40;0.57;;;0.90;99.90;;;;;;4989293;28;20423;-70
2022/01/08 06:13:44;;;;;;;1.10;0.40;;;0.90;99.90;;;;;;4989155;28;20199;-70
2022/01/08 06:16:10;;;;;;;1.10;0.60;;;0.90;99.90;;;;;;4983050;28;20673;-70
2022/01/08 06:18:36;;;;;;;1.50;0.80;;;0.90;99.90;;;;;;4994757;28;20244;-70
2022/01/08 06:21:04;;;;;;;1.10;0.50;;;0.80;99.90;;;;;;4992785;28;20455;-70
2022/01/08 06:23:29;;;;;;;1.30;0.50;;;0.90;99.90;;;;;;4989983;28;20470;-71
2022/01/08 06:25:55;;;;;;;2.13;0.50;;;0.80;99.90;;;;;;4987702;28;20458;-70
2022/01/08 06:28:21;;;;;;;1.47;0.60;;;0.80;99.90;;;;;;4979997;28;20235;-70
2022/01/08 06:30:49;;;;;;;1.20;0.63;;;0.70;99.90;;;;;;4983782;28;20215;-70
2022/01/08 06:33:17;;;;;;;1.83;0.73;;;0.70;99.90;;;;;;4984025;28;20192;-70
2022/01/08 06:35:44;;;;;;;1.20;0.60;;;0.70;99.90;;;;;;4989103;28;20477;-70
2022/01/08 06:38:09;;;;;;;1.20;0.60;;;0.70;99.90;;;;;;4990158;28;20423;-70
2022/01/08 06:40:36;;;;;;;1.30;0.60;;;0.70;99.90;;;;;;4993737;28;20525;-70
2022/01/08 06:43:01;;;;;;;1.30;0.67;;;0.70;99.90;;;;;;4997356;28;20198;-70
2022/01/08 06:45:27;;;;;;;4.20;0.60;;;0.70;99.90;;;;;;4993726;28;20438;-70
2022/01/08 06:47:53;;;;;;;1.10;0.50;;;0.70;99.90;;;;;;4994623;28;20213;-70
2022/01/08 06:50:18;;;;;;;1.10;0.47;;;0.70;99.90;;;;;;4998161;28;20290;-70
2022/01/08 06:52:44;;;;;;;1.50;0.63;;;0.70;99.90;;;;;;4999811;28;20257;-70
2022/01/08 06:55:10;;;;;;;1.60;0.80;;;0.70;99.90;;;;;;4988348;28;20219;-70
2022/01/08 06:57:36;;;;;;;1.80;0.67;;;0.70;99.90;;;;;;4988628;28;20224;-70
2022/01/08 07:00:04;;;;;;;1.20;0.60;;;0.70;99.90;;;;;;4993145;28;20478;-70
2022/01/08 07:02:29;;;;;;;1.50;0.70;;;0.70;99.90;;;;;;4992728;28;20435;-70
2022/01/08 07:04:55;;;;;;;3.10;0.80;;;0.70;99.90;;;;;;4979604;28;20482;-70
2022/01/08 07:07:21;;;;;;;1.60;0.70;;;0.70;99.90;;;;;;4981823;28;20671;-70
2022/01/08 07:09:47;;;;;;;1.50;0.80;;;0.70;99.90;;;;;;4988320;28;20691;-70
2022/01/08 07:12:13;;;;;;;2.30;1.17;;;0.70;99.90;;;;;;4982879;28;20444;-70
2022/01/08 07:14:38;;;;;;;1.73;0.70;;;0.70;99.90;;;;;;4983166;28;20183;-70
2022/01/08 07:17:04;;;;;;;1.83;0.87;;;0.70;99.90;;;;;;4989312;28;20735;-70
2022/01/08 07:19:30;;;;;;;1.77;0.90;;;0.60;99.90;;;;;;4980970;28;20280;-69
2022/01/08 07:21:55;;;;;;;2.37;1.03;;;0.60;99.90;;;;;;4976897;28;20259;-70
2022/01/08 07:24:21;;;;;;;2.57;0.80;;;0.60;99.90;;;;;;4982642;28;20631;-70
2022/01/08 07:26:47;;;;;;;3.37;0.83;;;0.60;99.90;;;;;;4980419;28;20199;-70
2022/01/08 07:29:12;;;;;;;1.37;0.83;;;0.60;99.90;;;;;;4983634;28;20220;-70
2022/01/08 07:31:38;;;;;;;1.97;0.70;;;0.70;99.90;;;;;;4987198;28;20194;-70
2022/01/08 07:34:04;;;;;;;2.20;1.00;;;0.70;99.90;;;;;;4976029;28;20189;-70
2022/01/08 07:36:30;;;;;;;6.53;1.70;;;0.60;99.90;;;;;;4979456;28;20204;-70
2022/01/08 07:38:55;;;;;;;2.10;1.17;;;0.60;99.90;;;;;;4995717;28;20207;-70
2022/01/08 07:41:21;;;;;;;3.00;1.30;;;0.60;99.90;;;;;;4993511;28;20262;-70
2022/01/08 07:43:47;;;;;;;3.20;0.90;;;0.60;99.90;;;;;;4997097;28;20235;-70
2022/01/08 07:46:13;;;;;;;2.67;1.10;;;0.60;99.90;;;;;;4986313;28;20191;-70
2022/01/08 07:48:40;;;;;;;5.13;1.17;;;0.60;99.90;;;;;;4993059;28;20558;-69
2022/01/08 07:51:06;;;;;;;2.37;1.13;;;0.60;99.90;;;;;;4992548;28;20199;-70
2022/01/08 07:53:31;;;;;;;2.43;1.03;;;0.60;99.90;;;;;;4983099;28;20431;-70
2022/01/08 07:55:57;;;;;;;2.70;1.30;;;0.50;99.90;;;;;;4993408;28;20215;-70
2022/01/08 07:58:22;;;;;;;2.50;0.97;;;0.50;99.90;;;;;;4987688;28;20257;-69
2022/01/08 08:00:49;;;;;;;3.20;1.13;;;0.50;99.90;;;;;;4987030;28;20218;-69
2022/01/08 08:03:15;;;;;;;1.53;0.90;;;0.40;99.90;;;;;;4987726;28;20249;-69
2022/01/08 08:05:41;;;;;;;1.77;1.03;;;0.40;99.90;;;;;;4988633;28;21054;-69
2022/01/08 08:08:07;;;;;;;2.17;1.17;;;0.50;99.90;;;;;;4989046;28;20541;-69
2022/01/08 08:10:32;;;;;;;2.10;1.10;;;0.60;99.90;;;;;;4987205;28;20229;-69
2022/01/08 08:12:58;;;;;;;2.03;1.03;;;0.50;99.90;;;;;;4993574;28;20762;-69
2022/01/08 08:15:24;;;;;;;1.50;0.90;;;0.40;99.90;;;;;;4987455;28;20263;-69
2022/01/08 08:17:50;;;;;;;1.67;0.90;;;0.30;99.90;;;;;;4993509;28;21234;-69
2022/01/08 08:20:17;;;;;;;1.73;0.80;;;0.20;99.90;;;;;;4990189;28;20481;-69
2022/01/08 08:22:42;;;;;;;3.10;1.57;;;0.20;99.90;;;;;;4990892;28;20462;-69
2022/01/08 08:25:12;;;;;;;3.00;1.00;;;0.20;99.90;;;;;;4988591;28;20481;-69
2022/01/08 08:27:39;;;;;;;2.37;1.20;;;0.20;99.90;;;;;;4988942;28;20226;-69
2022/01/08 08:30:07;;;;;;;3.10;1.10;;;0.20;99.90;;;;;;4988959;28;20442;-69
2022/01/08 08:32:32;;;;;;;1.80;1.07;;;0.20;99.90;;;;;;4989172;28;20450;-69
2022/01/08 08:34:58;;;;;;;2.30;1.20;;;0.20;99.90;;;;;;4989612;28;20434;-70
2022/01/08 08:37:24;;;;;;;3.97;2.00;;;0.40;99.90;;;;;;4991240;28;20207;-70
2022/01/08 08:39:49;;;;;;;3.80;1.57;;;0.40;99.90;;;;;;5000551;28;20250;-69
2022/01/08 08:42:16;;;;;;;5.37;2.00;;;0.40;99.90;;;;;;4991611;28;20234;-70
2022/01/08 08:44:42;;;;;;;7.23;1.90;;;0.40;99.90;;;;;;4998540;28;20187;-69
2022/01/08 08:47:08;;;;;;;3.60;1.70;;;0.40;99.90;;;;;;4992581;28;20501;-69
2022/01/08 08:49:34;;;;;;;9.20;1.47;;;0.40;99.90;;;;;;4987491;28;20789;-70
2022/01/08 08:52:00;;;;;;;7.77;3.30;;;0.40;99.90;;;;;;4994456;28;20442;-69
2022/01/08 08:54:26;;;;;;;7.13;2.17;;;0.40;99.90;;;;;;5000474;28;20505;-69
2022/01/08 08:56:52;;;;;;;7.73;3.60;;;0.40;99.90;;;;;;4995158;28;20474;-69
2022/01/08 08:59:17;;;;;;;4.33;1.70;;;0.40;99.90;;;;;;4998348;28;20219;-69
2022/01/08 09:01:43;;;;;;;8.40;3.10;;;0.50;99.90;;;;;;4993824;28;20194;-70
2022/01/08 09:04:09;;;;;;;6.80;1.80;;;0.60;99.90;;;;;;4994349;28;20230;-69
2022/01/08 09:06:35;;;;;;;3.00;1.00;;;0.60;99.90;;;;;;4994896;28;20204;-69
2022/01/08 09:09:01;;;;;;;2.37;1.20;;;0.70;99.90;;;;;;4997323;28;20195;-70
2022/01/08 09:11:27;;;;;;;2.23;1.10;;;0.80;99.90;;;;;;4990916;28;20438;-70
2022/01/08 09:13:53;;;;;;;3.03;1.57;;;0.80;99.90;;;;;;4994307;28;20188;-69
2022/01/08 09:16:19;;;;;;;5.30;1.53;;;0.80;99.90;;;;;;4989092;28;20819;-70
2022/01/08 09:18:44;;;;;;;2.37;0.80;;;0.90;99.90;;;;;;4987093;28;20192;-70
2022/01/08 09:21:13;;;;;;;3.13;1.80;;;0.90;99.90;;;;;;4982189;28;20450;-70
2022/01/08 09:23:39;;;;;;;6.03;2.17;;;0.90;99.90;;;;;;4983959;28;20188;-70
2022/01/08 09:26:05;;;;;;;3.00;1.50;;;1.00;99.90;;;;;;4987583;28;20493;-70
2022/01/08 09:28:31;;;;;;;4.17;1.70;;;1.00;99.90;;;;;;4981947;28;20207;-69
2022/01/08 09:30:57;;;;;;;7.37;1.43;;;1.00;99.90;;;;;;4980555;28;20435;-69
2022/01/08 09:33:25;;;;;;;2.20;1.20;;;1.00;99.90;;;;;;4980806;28;20935;-69
2022/01/08 09:35:52;;;;;;;3.43;1.87;;;1.00;99.90;;;;;;4989615;28;20854;-67
2022/01/08 09:38:18;;;;;;;2.80;1.43;;;1.00;99.90;;;;;;5000115;28;20820;-69
2022/01/08 09:40:43;;;;;;;1.77;0.97;;;1.00;99.90;;;;;;5002976;28;20430;-68
2022/01/08 09:43:10;;;;;;;10.10;1.93;;;1.10;99.90;;;;;;4990794;28;20180;-67
2022/01/08 09:45:35;;;;;;;2.97;1.10;;;1.10;99.90;;;;;;4985061;28;20687;-68
2022/01/08 09:48:01;;;;;;;3.10;1.20;;;1.10;99.90;;;;;;4976944;28;20553;-68
2022/01/08 09:50:27;;;;;;;10.37;3.37;;;1.10;99.90;;;;;;4978633;28;20290;-68
2022/01/08 09:52:57;;;;;;;13.10;2.23;;;1.10;99.90;;;;;;4976049;28;20202;-68
2022/01/08 09:55:25;;;;;;;6.93;3.07;;;1.10;99.90;;;;;;4980605;28;20192;-68
2022/01/08 09:57:51;;;;;;;8.67;3.20;;;1.10;99.90;;;;;;4980062;28;20470;-68
2022/01/08 10:00:18;;;;;;;12.70;4.67;;;1.10;99.90;;;;;;4979051;28;20781;-68
2022/01/08 10:02:46;;;;;;;17.27;4.60;;;1.10;99.90;;;;;;4982158;28;20545;-68
2022/01/08 10:05:15;;;;;;;13.10;3.50;;;1.20;99.90;;;;;;4985773;28;20537;-68
2022/01/08 10:07:41;;;;;;;14.20;3.20;;;1.20;99.90;;;;;;4980873;28;20522;-68
2022/01/08 10:10:19;;;;;;;7.10;3.23;;;1.10;99.90;;;;;;4981842;28;20439;-68
2022/01/08 10:12:51;;;;;;;4.87;2.03;;;1.10;99.90;;;;;;4980498;28;20456;-68
2022/01/08 10:18:09;;;;;;;13.73;4.93;;;1.10;99.90;;;;;;4980719;28;20426;-69
2022/01/08 10:20:38;;;;;;;12.00;4.17;;;1.30;99.90;;;;;;4980027;28;20431;-69
2022/01/08 10:23:28;;;;;;;4.23;1.67;;;1.40;99.90;;;;;;4980462;28;20902;-69
2022/01/08 10:25:58;;;;;;;12.00;3.57;;;1.40;99.90;;;;;;4978959;28;20982;-69
2022/01/08 10:28:42;;;;;;;15.40;3.50;;;1.40;99.90;;;;;;4985078;28;20545;-69
2022/01/08 10:31:12;;;;;;;3.57;1.83;;;1.40;99.90;;;;;;4979343;28;20469;-68
2022/01/08 10:33:38;;;;;;;5.53;1.97;;;1.30;99.90;;;;;;4980229;28;20474;-68
2022/01/08 10:36:05;;;;;;;7.63;2.67;;;1.30;99.90;;;;;;4981587;28;20471;-68
2022/01/08 10:38:31;;;;;;;8.00;2.37;;;1.30;99.90;;;;;;4978933;28;20443;-68
2022/01/08 10:40:59;;;;;;;14.27;3.10;;;1.30;99.90;;;;;;4986763;28;20438;-68
2022/01/08 10:43:31;;;;;;;5.37;1.60;;;1.30;99.90;;;;;;4979784;28;20282;-68
2022/01/08 10:46:13;;;;;;;4.70;1.30;;;1.30;99.90;;;;;;4982983;28;20439;-68
2022/01/08 10:48:43;;;;;;;2.73;1.20;;;1.20;99.90;;;;;;4982736;28;20434;-68
2022/01/08 10:51:34;;;;;;;1.40;0.80;;;1.20;99.90;;;;;;4984841;28;20534;-68
2022/01/08 10:54:10;;;;;;;1.50;0.70;;;1.20;99.90;;;;;;4982882;28;20451;-68
2022/01/08 10:56:42;;;;;;;5.43;1.13;;;1.20;99.90;;;;;;4982433;28;20478;-67
2022/01/08 10:59:14;;;;;;;3.90;1.33;;;1.20;99.90;;;;;;4988240;28;20509;-68
2022/01/08 11:01:46;;;;;;;3.10;0.90;;;1.30;99.90;;;;;;4980930;28;20424;-68
2022/01/08 11:04:31;;;;;;;5.87;1.37;;;1.30;99.90;;;;;;4988406;28;20474;-67
2022/01/08 11:06:59;;;;;;;1.80;1.07;;;1.40;99.90;;;;;;4984339;28;20438;-67
2022/01/08 11:09:27;;;;;;;1.60;0.90;;;1.40;99.90;;;;;;4987631;28;20435;-68
2022/01/08 11:11:54;;;;;;;1.50;0.60;;;1.50;99.90;;;;;;4980895;28;20948;-68
2022/01/08 11:17:25;;;;;;;6.27;1.70;;;1.70;99.90;;;;;;4982312;28;20542;-68
2022/01/08 11:20:00;;;;;;;12.70;2.67;;;1.70;99.90;;;;;;4982938;28;20435;-68
2022/01/08 11:22:28;;;;;;;8.07;3.00;;;1.70;99.90;;;;;;4985531;28;20473;-68
2022/01/08 11:25:00;;;;;;;7.47;1.93;;;1.70;99.90;;;;;;4979438;28;20493;-68
2022/01/08 11:27:44;;;;;;;5.50;2.07;;;1.70;99.90;;;;;;4986034;28;20438;-68
2022/01/08 11:30:22;;;;;;;9.77;2.90;;;1.50;99.90;;;;;;4989333;28;20938;-67
2022/01/08 11:32:50;;;;;;;7.47;1.73;;;1.50;99.90;;;;;;4992629;28;20439;-68
2022/01/08 11:35:17;;;;;;;3.00;1.27;;;1.40;99.90;;;;;;4994894;28;20922;-68
2022/01/08 11:37:46;;;;;;;4.60;1.47;;;1.30;99.90;;;;;;4990188;28;20470;-67
2022/01/08 11:40:15;;;;;;;9.10;2.50;;;1.40;99.90;;;;;;4989374;28;20966;-67
2022/01/08 11:42:41;;;;;;;2.80;1.40;;;1.40;99.90;;;;;;4991586;28;20426;-67
2022/01/08 11:45:13;;;;;;;3.67;1.27;;;1.50;99.90;;;;;;4992012;28;20485;-67
2022/01/08 11:47:42;;;;;;;6.60;2.00;;;1.60;99.90;;;;;;4990889;28;21126;-68
2022/01/08 11:50:10;;;;;;;5.00;1.53;;;1.60;99.90;;;;;;4985717;28;20458;-67
2022/01/08 11:52:35;;;;;;;3.20;0.80;;;1.60;99.90;;;;;;4995581;28;20428;-68
2022/01/08 11:55:01;;;;;;;5.90;1.60;;;1.60;99.90;;;;;;4992981;28;20929;-67
2022/01/08 11:57:29;;;;;;;3.33;1.53;;;1.50;99.90;;;;;;4996024;28;20876;-67
2022/01/08 11:59:58;;;;;;;5.20;1.87;;;1.60;99.90;;;;;;4983637;28;20215;-67
2022/01/08 12:02:50;;;;;;;4.63;1.83;;;1.60;99.90;;;;;;4985573;28;20419;-67
2022/01/08 12:05:27;;;;;;;2.30;1.33;;;1.60;99.90;;;;;;4988253;28;20442;-69
2022/01/08 12:08:14;;;;;;;3.43;1.60;;;1.60;99.90;;;;;;4988155;28;21043;-69
2022/01/08 12:10:57;;;;;;;3.37;0.90;;;1.60;99.90;;;;;;4991269;28;20958;-69
2022/01/08 12:13:43;;;;;;;2.53;0.93;;;1.60;99.90;;;;;;4990796;28;20580;-68
2022/01/08 12:16:35;;;;;;;14.00;0.90;;;1.70;99.90;;;;;;4990996;28;20458;-69
2022/01/08 12:19:03;;;;;;;1.90;0.90;;;1.80;99.90;;;;;;4993328;28;20837;-67
2022/01/08 12:21:39;;;;;;;2.30;0.97;;;1.80;99.90;;;;;;4991763;28;20450;-67
2022/01/08 12:24:26;;;;;;;3.30;1.10;;;2.00;99.90;;;;;;4990190;28;20420;-69
2022/01/08 12:26:57;;;;;;;2.53;0.90;;;2.00;99.90;;;;;;4995859;28;20450;-68
2022/01/08 12:29:35;;;;;;;1.87;0.60;;;2.00;99.90;;;;;;4993709;28;20442;-70
2022/01/08 12:32:18;;;;;;;2.90;0.90;;;2.00;99.90;;;;;;4986555;28;20738;-70
2022/01/08 12:34:48;;;;;;;2.90;0.90;;;2.10;99.90;;;;;;4994647;28;20426;-69
2022/01/08 12:37:15;;;;;;;1.83;0.83;;;2.20;99.90;;;;;;4995468;28;20844;-70
2022/01/08 12:39:44;;;;;;;1.80;0.93;;;2.30;99.90;;;;;;4986171;28;20423;-70
2022/01/08 12:42:25;;;;;;;2.90;1.10;;;2.30;99.90;;;;;;4993608;28;20926;-70
2022/01/08 12:45:19;;;;;;;1.67;0.70;;;2.30;99.90;;;;;;4995182;28;20415;-70
2022/01/08 12:47:46;;;;;;;4.03;0.77;;;2.30;99.90;;;;;;4997172;28;20429;-70
2022/01/08 12:50:37;;;;;;;3.93;1.17;;;2.40;99.90;;;;;;4998341;28;20845;-70
2022/01/08 12:53:05;;;;;;;3.40;1.00;;;2.50;99.90;;;;;;4990786;28;20415;-68
2022/01/08 12:55:32;;;;;;;1.60;0.90;;;2.50;99.90;;;;;;4991491;28;20426;-68
2022/01/08 12:57:58;;;;;;;1.30;0.70;;;2.40;99.90;;;;;;4991645;28;21106;-68
2022/01/08 13:00:25;;;;;;;2.47;0.90;;;2.30;99.90;;;;;;4984000;28;20428;-68
2022/01/08 13:02:51;;;;;;;3.00;1.27;;;2.20;99.90;;;;;;4982496;28;20934;-69
2022/01/08 13:05:17;;;;;;;2.60;1.20;;;2.00;99.90;;;;;;4992831;28;20617;-68
2022/01/08 13:07:50;;;;;;;5.67;1.70;;;1.90;99.90;;;;;;4993288;28;20303;-68
2022/01/08 13:10:17;;;;;;;5.33;1.20;;;1.90;99.90;;;;;;4984807;28;20428;-68
2022/01/08 13:12:43;;;;;;;2.10;1.07;;;1.90;99.90;;;;;;4985573;28;20434;-68
2022/01/08 13:15:09;;;;;;;4.37;1.40;;;1.80;99.90;;;;;;4995863;28;20430;-66
2022/01/08 13:17:35;;;;;;;2.23;0.90;;;1.80;99.90;;;;;;4998225;28;20489;-66
2022/01/08 13:20:04;;;;;;;3.20;1.13;;;1.90;99.90;;;;;;4996941;28;20445;-66
2022/01/08 13:22:31;;;;;;;2.67;1.50;;;2.10;99.90;;;;;;4995259;28;20231;-66
2022/01/08 13:24:58;;;;;;;5.60;2.47;;;2.10;99.90;;;;;;4984520;28;20908;-66
2022/01/08 13:27:24;;;;;;;2.20;1.17;;;2.20;99.90;;;;;;4987722;28;20906;-66
2022/01/08 13:29:54;;;;;;;1.40;0.60;;;2.20;99.90;;;;;;4990186;28;20434;-66